サンホセ/フアン・サンタ・マリア の空港の天気 - METARとTAF

フアン・サンタ・マリア国際空港 ( MROC / SJO ) - コスタリカ サンホセ
飛行場実況気象(Metar)
観測時間05/28 16:00 CST (05/28 22:00 UTC)
風向・風速不定 1m/s
視程10km以上
天気現象弱い雨 周辺で雷
全天の4割程度の雲 雲底高度 760m
全天の8割程度の雲 雲底高度 3660m
気温22℃
湿度100%
気圧1015hPa
METARMROC 282200Z VRB01KT 9999 -RA VCTS SCT025CB BKN120 22/22 A2997 NOSIG
過去の天気等 Google飛行場航空写真 Wunderground天気予報

過去48時間のMETAR

飛行場予報(TAF)
発表時間: 5/28 11:00 CST (5/28 17:00 UTC)
予報対象時間: 28日12時 CST ~ 29日12時 CST
風向・風速西南西 4m/s
視程10km以上
全天の4割程度の雲 雲底高度 760m
28日13時 CST ~ 28日16時 CST に一時的に
天気現象しゅう雨
全天の4割程度の塔状積雲 雲底高度 460m
全天の8割程度の雲 雲底高度 910m
28日18時 CST ~ 28日24時 CST に一時的に
風向・風速不定 1m/s
視程5000m
天気現象もや
全天の8割程度の雲 雲底高度 300m
29日3時 CST ~ 29日7時 CST に一時的に
風向・風速東北東 2m/s
MROC 281700Z 2818/2918 25007KT 9999 SCT025 TX28/2918Z TN19/2911Z
TEMPO 2819/2822 SHRA SCT015TCU BKN030
TEMPO 2900/2906 VRB02KT 5000 BR BKN010
TEMPO 2909/2913 06004KT